Time;durP1;ratioP1;P1;durP2;ratioP2;P2;SDS_P1;SDS_P2;PMS_P1;PMS_P2;Temp;Humidity;BMP_temperature;BMP_pressure;BME280_temperature;BME280_humidity;BME280_pressure;Samples;Min_cycle;Max_cycle;Signal;HPM_P1;HPM_P2
2021/11/26 00:00:57;;;;;;;92.17;38.50;;;;;;;3.85;74.40;100076.66;5055245;28;20051;-68
2021/11/26 00:03:22;;;;;;;84.33;37.37;;;;;;;3.97;73.57;100070.53;5054110;28;20036;-68
2021/11/26 00:05:48;;;;;;;88.90;40.63;;;;;;;4.03;73.24;100070.06;5052869;28;20041;-68
2021/11/26 00:08:13;;;;;;;87.83;40.83;;;;;;;4.10;72.86;100071.28;5048701;28;20323;-68
2021/11/26 00:10:39;;;;;;;113.70;43.20;;;;;;;4.18;73.01;100062.06;5063911;28;20051;-68
2021/11/26 00:13:07;;;;;;;161.40;52.60;;;;;;;4.28;72.51;100055.19;5056475;28;20041;-68
2021/11/26 00:18:05;;;;;;;99.23;42.80;;;;;;;4.31;72.96;100037.44;5045624;28;20211;-67
2021/11/26 00:20:32;;;;;;;95.50;39.20;;;;;;;4.43;72.92;100047.00;5047338;28;20299;-67
2021/11/26 00:22:57;;;;;;;90.97;38.83;;;;;;;4.54;71.56;100046.19;5047804;28;20326;-68
2021/11/26 00:25:23;;;;;;;96.50;39.77;;;;;;;4.42;70.95;100042.72;5056971;28;20108;-68
2021/11/26 00:27:48;;;;;;;90.20;36.53;;;;;;;4.35;70.45;100038.88;5063268;28;20032;-68
2021/11/26 00:30:14;;;;;;;87.37;36.70;;;;;;;4.31;71.06;100041.84;5054474;28;20100;-68
2021/11/26 00:32:40;;;;;;;86.33;36.43;;;;;;;4.28;71.87;100050.78;5054380;28;20033;-67
2021/11/26 00:35:06;;;;;;;82.43;35.50;;;;;;;4.30;72.17;100054.13;5063088;28;20323;-67
2021/11/26 00:37:31;;;;;;;71.20;33.53;;;;;;;4.26;71.22;100049.22;5059247;28;20017;-67
2021/11/26 00:39:57;;;;;;;83.57;34.23;;;;;;;4.08;71.21;100041.75;5047891;28;20067;-67
2021/11/26 00:42:22;;;;;;;74.80;34.67;;;;;;;4.11;69.07;100043.31;5048657;28;20021;-67
2021/11/26 00:44:48;;;;;;;72.13;34.23;;;;;;;3.93;67.76;100039.44;5043927;28;20091;-68
2021/11/26 00:47:14;;;;;;;88.23;35.23;;;;;;;3.73;67.70;100039.09;5044803;28;20025;-68
2021/11/26 00:49:39;;;;;;;78.53;38.60;;;;;;;3.61;68.88;100037.38;5049665;28;20041;-69
2021/11/26 00:52:05;;;;;;;71.40;33.03;;;;;;;3.51;69.60;100049.44;5063415;28;20041;-69
2021/11/26 00:54:30;;;;;;;78.97;33.10;;;;;;;3.40;69.34;100039.75;5061267;28;20036;-67
2021/11/26 00:56:56;;;;;;;96.77;43.90;;;;;;;3.40;70.72;100039.75;5047782;28;20021;-69
2021/11/26 00:59:21;;;;;;;67.13;33.33;;;;;;;3.40;71.63;100031.06;5045082;28;20037;-67
2021/11/26 01:01:47;;;;;;;78.23;34.77;;;;;;;3.40;72.31;100028.44;5045921;28;20043;-68
2021/11/26 01:04:12;;;;;;;75.87;34.77;;;;;;;3.45;73.74;100026.31;5061344;28;20041;-69
2021/11/26 01:06:38;;;;;;;76.87;33.33;;;;;;;3.52;72.12;100027.56;5063077;28;20044;-69
2021/11/26 01:09:03;;;;;;;81.27;34.30;;;;;;;3.61;72.74;100020.81;5053772;28;20167;-67
2021/11/26 01:11:29;;;;;;;67.37;32.00;;;;;;;3.56;73.25;100005.44;5054350;28;20204;-70
2021/11/26 01:13:54;;;;;;;74.97;31.13;;;;;;;3.66;73.09;100008.22;5045716;28;20052;-68
2021/11/26 01:16:20;;;;;;;75.00;34.47;;;;;;;3.72;72.00;99992.91;5049550;28;20104;-69
2021/11/26 01:18:45;;;;;;;66.77;32.23;;;;;;;3.51;72.61;100004.94;5045276;28;20100;-69
2021/11/26 01:21:11;;;;;;;72.73;31.60;;;;;;;3.60;72.27;99995.59;5044145;28;20030;-69
2021/11/26 01:23:37;;;;;;;72.53;30.53;;;;;;;3.63;72.27;99987.50;5042762;28;20049;-69
2021/11/26 01:26:04;;;;;;;73.60;31.67;;;;;;;3.62;72.13;99981.44;5042454;28;20037;-69
2021/11/26 01:28:30;;;;;;;79.83;33.50;;;;;;;3.65;72.20;99962.88;5042580;28;20100;-69
2021/11/26 01:30:55;;;;;;;74.97;30.60;;;;;;;3.83;70.52;99969.38;5051565;28;20060;-70
2021/11/26 01:33:21;;;;;;;84.07;32.07;;;;;;;3.55;71.83;99964.50;5062096;28;20029;-70
2021/11/26 01:35:51;;;;;;;75.10;31.70;;;;;;;3.29;72.55;99965.56;5057192;28;20104;-69
2021/11/26 01:38:18;;;;;;;66.33;29.47;;;;;;;3.22;73.73;99956.47;5042961;28;20021;-69
2021/11/26 01:40:43;;;;;;;73.20;29.80;;;;;;;3.01;74.57;99948.34;5041815;28;20049;-69
2021/11/26 01:43:12;;;;;;;65.40;29.87;;;;;;;2.91;74.90;99950.78;5057086;28;20024;-68
2021/11/26 01:45:49;;;;;;;66.73;28.20;;;;;;;2.67;73.55;99948.09;5061955;28;20335;-68
2021/11/26 01:48:16;;;;;;;58.23;27.43;;;;;;;2.26;76.22;99934.44;5049591;28;20049;-68
2021/11/26 01:50:42;;;;;;;64.33;27.07;;;;;;;1.98;78.84;99940.66;5050463;28;20109;-69
2021/11/26 01:53:07;;;;;;;62.70;28.03;;;;;;;1.97;79.68;99946.84;5041960;28;20285;-69
2021/11/26 01:55:33;;;;;;;66.20;27.67;;;;;;;1.98;79.58;99938.91;5044025;28;20048;-68
2021/11/26 01:57:59;;;;;;;63.87;26.90;;;;;;;1.91;79.71;99940.25;5051867;28;20151;-68
2021/11/26 02:00:29;;;;;;;200.20;46.17;;;;;;;2.14;79.56;99938.72;5050899;28;20021;-68
2021/11/26 02:02:55;;;;;;;127.93;35.87;;;;;;;2.36;78.39;99935.50;5051110;28;20025;-68
2021/11/26 02:05:23;;;;;;;88.00;32.37;;;;;;;2.61;77.46;99945.91;5047125;28;20036;-69
2021/11/26 02:07:49;;;;;;;69.77;28.60;;;;;;;2.65;75.96;99921.22;5043313;28;20317;-69
2021/11/26 02:10:14;;;;;;;71.20;29.03;;;;;;;2.91;75.53;99922.00;5041472;28;20034;-68
2021/11/26 02:12:40;;;;;;;73.83;29.87;;;;;;;2.94;75.78;99921.78;5045093;28;20357;-68
2021/11/26 02:15:06;;;;;;;70.87;30.30;;;;;;;3.09;75.60;99919.84;5048845;28;20256;-69
2021/11/26 02:17:31;;;;;;;101.47;34.00;;;;;;;3.16;75.14;99908.03;5041527;28;20024;-69
2021/11/26 02:19:58;;;;;;;72.47;29.83;;;;;;;3.18;74.58;99903.53;5043771;28;20052;-68
2021/11/26 02:22:25;;;;;;;78.83;31.23;;;;;;;3.23;74.24;99919.72;5060006;28;20044;-69
2021/11/26 02:24:50;;;;;;;66.27;30.03;;;;;;;3.31;73.06;99911.31;5048583;28;20094;-68
2021/11/26 02:27:17;;;;;;;65.43;28.07;;;;;;;3.36;71.63;99909.19;5061700;28;20036;-69
2021/11/26 02:29:43;;;;;;;58.47;26.90;;;;;;;3.19;71.73;99911.25;5060164;28;20052;-68
2021/11/26 02:32:09;;;;;;;50.47;23.23;;;;;;;3.08;71.94;99903.31;5043904;28;20293;-69
2021/11/26 02:34:34;;;;;;;74.50;30.60;;;;;;;3.08;70.45;99897.25;5041964;28;20084;-69
2021/11/26 02:37:00;;;;;;;63.80;26.80;;;;;;;3.05;71.91;99898.31;5044277;28;20033;-69
2021/11/26 02:39:25;;;;;;;68.70;29.03;;;;;;;3.11;71.48;99889.19;5045322;28;20044;-68
2021/11/26 02:41:51;;;;;;;67.50;28.67;;;;;;;3.05;72.09;99900.94;5045841;28;20326;-68
2021/11/26 02:44:16;;;;;;;64.73;27.73;;;;;;;2.94;71.59;99903.47;5041994;28;20196;-68
2021/11/26 02:46:42;;;;;;;69.73;29.27;;;;;;;2.92;71.16;99905.38;5057610;28;20095;-68
2021/11/26 02:49:07;;;;;;;73.83;30.00;;;;;;;2.84;70.29;99886.78;5060479;28;20047;-69
2021/11/26 02:51:34;;;;;;;72.93;31.80;;;;;;;2.86;71.35;99877.88;5053045;28;20092;-68
2021/11/26 02:54:00;;;;;;;63.30;28.23;;;;;;;2.80;71.23;99874.88;5047342;28;20061;-69
2021/11/26 02:56:26;;;;;;;55.00;26.03;;;;;;;2.73;71.29;99871.00;5041361;28;20060;-69
2021/11/26 02:58:52;;;;;;;66.67;26.63;;;;;;;2.58;72.21;99869.50;5040523;28;20087;-68
2021/11/26 03:01:18;;;;;;;57.17;26.20;;;;;;;2.40;73.25;99864.63;5052094;28;20041;-68
2021/11/26 03:03:43;;;;;;;57.70;26.10;;;;;;;2.31;73.81;99860.03;5046592;28;20042;-68
2021/11/26 03:06:09;;;;;;;68.63;27.50;;;;;;;2.10;72.46;99864.13;5044587;28;20082;-68
2021/11/26 03:08:35;;;;;;;81.90;27.17;;;;;;;1.66;74.73;99861.88;5049410;28;20035;-68
2021/11/26 03:11:04;;;;;;;74.23;27.87;;;;;;;1.51;75.39;99864.59;5060835;28;20057;-69
2021/11/26 03:13:30;;;;;;;78.97;29.50;;;;;;;1.69;75.68;99857.31;5052914;28;20521;-69
2021/11/26 03:15:57;;;;;;;76.17;29.07;;;;;;;1.88;74.68;99859.50;5061139;28;20064;-68
2021/11/26 03:18:24;;;;;;;131.70;31.70;;;;;;;1.74;76.09;99857.00;5046264;28;20028;-68
2021/11/26 03:20:50;;;;;;;98.37;31.87;;;;;;;1.59;77.55;99851.88;5044314;28;20025;-69
2021/11/26 03:23:18;;;;;;;89.57;31.57;;;;;;;1.67;76.82;99845.28;5048798;28;20037;-69
2021/11/26 03:25:44;;;;;;;111.13;32.60;;;;;;;1.60;76.21;99830.03;5059141;28;20241;-68
2021/11/26 03:28:11;;;;;;;156.00;34.40;;;;;;;1.59;77.21;99833.59;5060341;28;20074;-68
2021/11/26 03:30:38;;;;;;;234.50;38.20;;;;;;;1.50;78.20;99835.97;5048486;28;20226;-68
2021/11/26 03:33:04;;;;;;;134.50;33.90;;;;;;;1.34;79.65;99830.94;5049908;28;20040;-68
2021/11/26 03:35:30;;;;;;;112.10;33.50;;;;;;;1.25;80.15;99821.97;5043797;28;20337;-68
2021/11/26 03:37:55;;;;;;;135.27;33.43;;;;;;;0.77;82.21;99831.16;5046859;28;20041;-69
2021/11/26 03:40:23;;;;;;;168.90;35.57;;;;;;;0.72;83.21;99835.00;5043225;28;20037;-69
2021/11/26 03:42:49;;;;;;;226.67;37.00;;;;;;;0.83;83.72;99835.97;5042152;28;20323;-68
2021/11/26 03:45:16;;;;;;;151.93;33.97;;;;;;;0.90;84.32;99845.09;5041005;28;20041;-68
2021/11/26 03:47:42;;;;;;;191.13;34.30;;;;;;;1.10;84.39;99829.94;5040116;28;20060;-68
2021/11/26 03:50:09;;;;;;;246.60;36.20;;;;;;;1.31;83.96;99827.72;5042143;28;20235;-69
2021/11/26 03:52:35;;;;;;;213.37;32.87;;;;;;;1.40;83.16;99817.50;5050278;28;20028;-68
2021/11/26 03:55:02;;;;;;;169.00;34.70;;;;;;;1.72;82.01;99822.31;5048461;28;20053;-68
2021/11/26 03:57:28;;;;;;;148.03;31.03;;;;;;;1.70;79.37;99806.75;5040109;28;20099;-69
2021/11/26 03:59:53;;;;;;;141.30;30.77;;;;;;;1.18;80.50;99794.59;5039967;28;20037;-69
2021/11/26 04:02:19;;;;;;;139.87;30.33;;;;;;;0.92;82.34;99805.88;5050491;28;20048;-68
2021/11/26 04:04:44;;;;;;;123.97;29.43;;;;;;;0.90;82.62;99797.31;5046539;28;20038;-68
2021/11/26 04:07:10;;;;;;;93.93;29.23;;;;;;;0.88;83.41;99787.00;5040015;28;20354;-68
2021/11/26 04:09:35;;;;;;;81.80;29.10;;;;;;;0.98;83.47;99782.00;5045671;28;20053;-70
2021/11/26 04:12:00;;;;;;;118.37;28.67;;;;;;;1.11;82.91;99782.91;5053023;28;20056;-69
2021/11/26 04:14:26;;;;;;;100.03;29.27;;;;;;;1.29;82.71;99786.06;5054710;28;20326;-68
2021/11/26 04:16:52;;;;;;;160.03;27.87;;;;;;;1.38;81.54;99782.00;5063875;28;20045;-69
2021/11/26 04:19:17;;;;;;;93.53;24.63;;;;;;;1.50;81.06;99778.56;5062775;28;20386;-69
2021/11/26 04:21:43;;;;;;;117.80;26.47;;;;;;;1.73;80.03;99782.22;5045485;28;20345;-69
2021/11/26 04:24:08;;;;;;;106.97;27.10;;;;;;;1.75;79.41;99777.72;5044591;28;20290;-69
2021/11/26 04:26:34;;;;;;;83.50;25.10;;;;;;;1.74;80.30;99781.28;5045173;28;20036;-68
2021/11/26 04:28:59;;;;;;;125.70;27.90;;;;;;;1.79;80.25;99773.97;5043574;28;20156;-68
2021/11/26 04:31:26;;;;;;;74.33;24.17;;;;;;;1.93;79.48;99759.03;5044746;28;20049;-68
2021/11/26 04:33:53;;;;;;;66.30;25.47;;;;;;;2.06;79.41;99773.84;5047021;28;20036;-68
2021/11/26 04:36:19;;;;;;;60.33;26.70;;;;;;;2.15;78.68;99766.22;5044948;28;20017;-68
2021/11/26 04:38:45;;;;;;;59.50;25.63;;;;;;;2.31;78.32;99767.75;5051503;28;20033;-70
2021/11/26 04:41:10;;;;;;;64.37;25.57;;;;;;;2.35;77.16;99770.03;5058573;28;20257;-69
2021/11/26 04:43:36;;;;;;;82.03;33.70;;;;;;;2.33;77.29;99769.31;5063188;28;20036;-69
2021/11/26 04:46:01;;;;;;;113.20;37.20;;;;;;;2.15;78.13;99752.31;5053652;28;20075;-68
2021/11/26 04:48:27;;;;;;;70.07;28.93;;;;;;;2.49;76.73;99763.81;5044606;28;20022;-68
2021/11/26 04:50:52;;;;;;;72.00;28.50;;;;;;;2.48;77.14;99762.16;5045315;28;20025;-68
2021/11/26 04:53:18;;;;;;;66.80;29.30;;;;;;;2.59;76.46;99759.59;5052539;28;20052;-70
2021/11/26 04:55:44;;;;;;;110.50;40.10;;;;;;;2.62;75.67;99764.59;5049471;28;20028;-69
2021/11/26 04:58:09;;;;;;;75.37;31.07;;;;;;;2.71;75.57;99763.94;5048723;28;20029;-68
2021/11/26 05:00:35;;;;;;;80.23;31.73;;;;;;;2.73;75.58;99772.50;5051495;28;20033;-68
2021/11/26 05:03:01;;;;;;;68.00;28.30;;;;;;;2.73;75.23;99777.72;5049361;28;20029;-68
2021/11/26 05:05:26;;;;;;;70.87;30.73;;;;;;;2.49;75.95;99780.31;5051128;28;20025;-70
2021/11/26 05:07:53;;;;;;;70.73;31.67;;;;;;;2.78;74.71;99785.22;5045544;28;20029;-69
2021/11/26 05:10:20;;;;;;;80.53;32.17;;;;;;;2.72;74.84;99772.59;5051257;28;20428;-69
2021/11/26 05:12:57;;;;;;;68.20;26.73;;;;;;;2.81;73.29;99771.94;5053279;28;20045;-69
2021/11/26 05:15:25;;;;;;;60.27;25.60;;;;;;;2.73;70.80;99755.97;5062960;28;20041;-68
2021/11/26 05:17:58;;;;;;;61.10;26.03;;;;;;;2.43;71.57;99746.78;5060965;28;20096;-68
2021/11/26 05:20:24;;;;;;;68.82;25.00;;;;;;;2.30;72.21;99735.56;5057364;28;20040;-68
2021/11/26 05:22:51;;;;;;;69.37;27.23;;;;;;;2.37;72.85;99741.16;5047014;28;20219;-68
2021/11/26 05:25:17;;;;;;;86.77;37.37;;;;;;;2.22;74.57;99733.50;5042809;28;20319;-69
2021/11/26 05:27:43;;;;;;;73.50;32.00;;;;;;;2.27;74.34;99746.22;5051703;28;20376;-69
2021/11/26 05:30:10;;;;;;;79.53;31.17;;;;;;;2.21;74.67;99744.03;5047663;28;20029;-68
2021/11/26 05:32:40;;;;;;;73.33;29.60;;;;;;;2.04;76.18;99758.28;5044106;28;20136;-68
2021/11/26 05:35:08;;;;;;;63.83;27.50;;;;;;;2.25;76.21;99763.78;5042140;28;20037;-68
2021/11/26 05:37:33;;;;;;;69.07;30.10;;;;;;;2.33;75.67;99768.47;5046098;28;20017;-69
2021/11/26 05:39:59;;;;;;;70.60;30.37;;;;;;;2.39;75.51;99758.41;5062443;28;20037;-69
2021/11/26 05:42:24;;;;;;;67.87;29.83;;;;;;;2.49;74.38;99755.97;5061997;28;20183;-68
2021/11/26 05:44:49;;;;;;;72.87;25.23;;;;;;;2.46;73.82;99743.13;5045155;28;20033;-68
2021/11/26 05:47:15;;;;;;;60.20;24.30;;;;;;;2.22;75.05;99753.56;5047923;28;20028;-68
2021/11/26 05:49:40;;;;;;;66.63;25.97;;;;;;;2.05;75.99;99746.88;5047125;28;21034;-69
2021/11/26 05:52:06;;;;;;;60.50;26.83;;;;;;;2.09;76.13;99756.19;5055878;28;20033;-69
2021/11/26 05:54:31;;;;;;;56.33;24.37;;;;;;;2.20;75.64;99745.81;5055240;28;20040;-68
2021/11/26 05:56:57;;;;;;;67.37;22.03;;;;;;;2.31;75.04;99746.84;5049505;28;20025;-68
2021/11/26 05:59:23;;;;;;;55.43;21.67;;;;;;;2.25;75.31;99740.28;5049033;28;20037;-68
2021/11/26 06:01:48;;;;;;;62.13;22.43;;;;;;;2.20;75.08;99727.53;5045888;28;20045;-68
2021/11/26 06:04:13;;;;;;;68.33;24.73;;;;;;;1.69;76.36;99705.06;5046910;28;20048;-68
2021/11/26 06:06:39;;;;;;;58.17;22.30;;;;;;;1.13;79.61;99683.72;5043955;28;20040;-68
2021/11/26 06:09:04;;;;;;;58.00;22.10;;;;;;;1.09;80.82;99718.75;5044214;28;20040;-69
2021/11/26 06:11:30;;;;;;;61.17;21.23;;;;;;;1.38;80.21;99716.78;5041505;28;20029;-69
2021/11/26 06:13:56;;;;;;;55.10;21.67;;;;;;;1.42;79.80;99702.59;5053294;28;20058;-68
2021/11/26 06:16:22;;;;;;;55.53;20.97;;;;;;;1.46;79.92;99711.88;5061794;28;20029;-68
2021/11/26 06:18:47;;;;;;;50.10;18.83;;;;;;;1.48;80.54;99717.81;5056071;28;20068;-69
2021/11/26 06:21:13;;;;;;;46.83;17.57;;;;;;;1.39;80.59;99711.47;5047267;28;20055;-69
2021/11/26 06:23:38;;;;;;;44.57;16.80;;;;;;;1.36;81.56;99700.41;5060258;28;20044;-68
2021/11/26 06:26:03;;;;;;;49.60;18.53;;;;;;;1.26;83.21;99698.41;5046537;28;20288;-68
2021/11/26 06:28:29;;;;;;;50.20;18.67;;;;;;;1.49;82.31;99715.13;5042231;28;20029;-68
2021/11/26 06:30:55;;;;;;;51.87;20.27;;;;;;;1.55;81.85;99709.47;5053269;28;20094;-69
2021/11/26 06:33:20;;;;;;;44.83;18.33;;;;;;;1.59;81.68;99705.72;5061191;28;20060;-69
2021/11/26 06:35:45;;;;;;;47.43;20.93;;;;;;;1.62;82.71;99709.88;5053416;28;20033;-68
2021/11/26 06:38:11;;;;;;;54.70;23.30;;;;;;;1.70;82.42;99693.69;5049153;28;20021;-68
2021/11/26 06:40:37;;;;;;;53.47;22.37;;;;;;;1.76;81.70;99683.66;5041203;28;20330;-68
2021/11/26 06:43:02;;;;;;;56.33;22.13;;;;;;;1.53;82.71;99684.44;5041502;28;20082;-68
2021/11/26 06:45:28;;;;;;;69.37;23.47;;;;;;;1.39;83.49;99685.38;5050405;28;20033;-68
2021/11/26 06:47:53;;;;;;;61.37;23.23;;;;;;;1.51;83.94;99676.69;5061886;28;20265;-68
2021/11/26 06:50:20;;;;;;;63.80;24.13;;;;;;;1.76;83.01;99685.44;5056999;28;20372;-68
2021/11/26 06:52:46;;;;;;;57.90;23.60;;;;;;;1.93;82.18;99685.06;5048704;28;20048;-67
2021/11/26 06:55:11;;;;;;;57.37;24.60;;;;;;;2.05;81.56;99691.19;5043006;28;20330;-67
2021/11/26 06:57:38;;;;;;;58.27;24.13;;;;;;;2.18;80.86;99674.56;5055384;28;20043;-68
2021/11/26 07:00:06;;;;;;;59.03;22.07;;;;;;;2.35;79.97;99668.13;5060690;28;20025;-68
2021/11/26 07:02:32;;;;;;;52.87;22.70;;;;;;;2.11;81.12;99673.34;5050736;28;20235;-67
2021/11/26 07:04:59;;;;;;;49.80;23.40;;;;;;;1.79;82.64;99675.59;5060569;28;20334;-67
2021/11/26 07:07:24;;;;;;;56.30;22.47;;;;;;;1.91;82.93;99690.41;5058507;28;20350;-67
2021/11/26 07:09:49;;;;;;;53.23;23.07;;;;;;;2.09;83.02;99696.13;5050589;28;20431;-68
2021/11/26 07:12:15;;;;;;;50.53;22.80;;;;;;;2.20;82.81;99693.59;5050744;28;21183;-68
2021/11/26 07:14:44;;;;;;;56.00;23.37;;;;;;;2.49;81.51;99690.63;5041220;28;20033;-67
2021/11/26 07:17:10;;;;;;;56.97;23.77;;;;;;;2.70;80.91;99696.91;5040530;28;20319;-67
2021/11/26 07:19:37;;;;;;;52.83;22.90;;;;;;;2.95;80.10;99692.47;5048020;28;20033;-68
2021/11/26 07:22:03;;;;;;;52.40;22.20;;;;;;;3.02;79.65;99691.88;5043121;28;20338;-68
2021/11/26 07:24:29;;;;;;;50.30;23.03;;;;;;;3.08;78.65;99667.88;5052021;28;20036;-67
2021/11/26 07:26:54;;;;;;;53.03;24.07;;;;;;;2.80;80.52;99668.28;5059254;28;20039;-67
2021/11/26 07:29:20;;;;;;;57.47;24.27;;;;;;;2.68;80.50;99656.13;5059989;28;20025;-67
2021/11/26 07:31:46;;;;;;;58.73;25.83;;;;;;;2.67;81.65;99660.53;5046213;28;20052;-68
2021/11/26 07:34:11;;;;;;;53.83;24.97;;;;;;;2.72;81.70;99644.50;5040703;28;20041;-68
2021/11/26 07:36:37;;;;;;;61.77;27.13;;;;;;;3.00;81.02;99657.16;5040868;28;20061;-67
2021/11/26 07:39:03;;;;;;;61.43;27.50;;;;;;;3.14;80.58;99654.34;5042652;28;20132;-67
2021/11/26 07:41:28;;;;;;;55.67;26.30;;;;;;;3.21;80.91;99639.03;5048393;28;20020;-68
2021/11/26 07:43:54;;;;;;;59.93;28.20;;;;;;;3.35;80.47;99632.72;5060348;28;20032;-67
2021/11/26 07:46:19;;;;;;;72.97;31.60;;;;;;;3.22;81.61;99627.59;5063197;28;20055;-67
2021/11/26 07:48:45;;;;;;;73.43;31.07;;;;;;;3.16;83.06;99635.94;5064823;28;20123;-67
2021/11/26 07:51:10;;;;;;;68.03;31.93;;;;;;;3.16;83.34;99615.00;5049331;28;20222;-67
2021/11/26 07:53:36;;;;;;;72.30;30.67;;;;;;;3.07;84.40;99581.66;5045920;28;20352;-67
2021/11/26 07:56:01;;;;;;;80.13;32.57;;;;;;;2.70;86.09;99581.88;5051865;28;20033;-67
2021/11/26 07:58:27;;;;;;;71.97;33.20;;;;;;;2.85;87.59;99606.00;5054509;28;20033;-67
2021/11/26 08:00:53;;;;;;;83.83;36.50;;;;;;;2.93;87.25;99598.41;5049408;28;20037;-67
2021/11/26 08:03:21;;;;;;;87.80;38.70;;;;;;;3.11;86.96;99604.84;5058084;28;20111;-67
2021/11/26 08:05:46;;;;;;;84.70;39.00;;;;;;;3.25;86.86;99616.06;5063501;28;20071;-67
2021/11/26 08:08:12;;;;;;;84.70;39.83;;;;;;;3.35;86.67;99598.69;5059061;28;20029;-67
2021/11/26 08:10:39;;;;;;;96.57;42.27;;;;;;;3.81;84.63;99575.78;5051210;28;20261;-68
2021/11/26 08:13:06;;;;;;;93.00;40.03;;;;;;;3.74;83.90;99571.16;5055888;28;20060;-67
2021/11/26 08:15:33;;;;;;;99.37;41.87;;;;;;;3.56;85.36;99567.38;5058130;28;20234;-67
2021/11/26 08:17:59;;;;;;;80.87;38.13;;;;;;;3.84;85.02;99566.84;5057355;28;20255;-68
2021/11/26 08:20:25;;;;;;;75.60;35.33;;;;;;;4.05;83.83;99566.88;5057659;28;20032;-68
2021/11/26 08:22:51;;;;;;;66.57;30.57;;;;;;;4.11;83.36;99542.81;5059197;28;20342;-68
2021/11/26 08:25:19;;;;;;;56.60;28.23;;;;;;;4.30;82.16;99532.50;5057760;28;20032;-68
2021/11/26 08:27:45;;;;;;;54.83;27.23;;;;;;;4.42;82.39;99543.75;5058292;28;20073;-68
2021/11/26 08:30:10;;;;;;;53.95;25.33;;;;;;;4.45;81.72;99546.94;5055752;28;20289;-68
2021/11/26 08:32:37;;;;;;;55.03;26.33;;;;;;;4.59;80.85;99553.66;5056494;28;20041;-67
2021/11/26 08:35:04;;;;;;;51.87;28.17;;;;;;;4.53;80.53;99550.72;5058071;28;20074;-67
2021/11/26 08:37:29;;;;;;;56.33;24.83;;;;;;;4.65;79.76;99554.94;5055968;28;20037;-69
2021/11/26 08:39:55;;;;;;;50.10;25.87;;;;;;;4.60;79.88;99552.69;5057384;28;20088;-68
2021/11/26 08:42:21;;;;;;;51.13;25.00;;;;;;;4.61;80.24;99556.97;5057385;28;20104;-70
2021/11/26 08:44:46;;;;;;;49.53;25.67;;;;;;;4.65;80.33;99552.31;5057369;28;20346;-69
2021/11/26 08:47:12;;;;;;;53.73;26.93;;;;;;;4.76;80.15;99550.44;5057418;28;20040;-69
2021/11/26 08:49:37;;;;;;;53.80;26.47;;;;;;;4.62;80.18;99537.66;5056352;28;20116;-68
2021/11/26 08:52:03;;;;;;;58.63;26.00;;;;;;;4.73;79.60;99513.16;5055177;28;20318;-69
2021/11/26 08:54:28;;;;;;;57.67;26.48;;;;;;;4.54;79.66;99499.94;5057796;28;20053;-69
2021/11/26 08:56:56;;;;;;;59.53;27.83;;;;;;;4.49;80.98;99508.19;5057031;28;20215;-69
2021/11/26 08:59:23;;;;;;;52.80;25.93;;;;;;;4.53;80.86;99503.53;5056592;28;20029;-68
2021/11/26 09:01:49;;;;;;;60.40;27.70;;;;;;;4.61;81.33;99474.84;5055582;28;20431;-69
2021/11/26 09:04:15;;;;;;;54.10;26.97;;;;;;;4.55;81.47;99470.13;5057057;28;20032;-68
2021/11/26 09:06:41;;;;;;;58.20;27.73;;;;;;;4.59;81.36;99446.16;5055660;28;20041;-68
2021/11/26 09:09:06;;;;;;;56.00;27.40;;;;;;;4.42;81.90;99423.16;5056421;28;20346;-68
2021/11/26 09:11:32;;;;;;;60.93;29.63;;;;;;;4.39;82.56;99421.63;5055964;28;20041;-70
2021/11/26 09:13:59;;;;;;;69.32;32.60;;;;;;;4.03;83.99;99408.97;5054898;28;20044;-69
2021/11/26 09:16:24;;;;;;;80.57;35.90;;;;;;;3.69;85.74;99392.63;5056709;28;20044;-68
2021/11/26 09:18:50;;;;;;;80.73;37.10;;;;;;;3.72;86.81;99363.56;5057121;28;20041;-68
2021/11/26 09:21:16;;;;;;;81.63;35.30;;;;;;;3.52;87.90;99332.03;5055483;28;20192;-68
2021/11/26 09:23:42;;;;;;;70.73;33.27;;;;;;;3.13;90.43;99307.34;5057925;28;20040;-68
2021/11/26 09:26:08;;;;;;;92.50;39.67;;;;;;;2.89;92.28;99318.00;5055447;28;20346;-69
2021/11/26 09:28:33;;;;;;;75.50;34.70;;;;;;;2.95;92.88;99292.31;5054936;28;20028;-69
2021/11/26 09:30:59;;;;;;;64.73;31.10;;;;;;;2.69;93.44;99303.09;5058140;28;20025;-68
2021/11/26 09:33:32;;;;;;;69.87;31.70;;;;;;;3.08;92.66;99322.56;5055213;28;20048;-68
2021/11/26 09:35:58;;;;;;;69.78;31.00;;;;;;;3.54;91.30;99310.97;5054862;28;20032;-68
2021/11/26 09:38:23;;;;;;;60.93;29.03;;;;;;;3.72;90.13;99316.44;5057979;28;20222;-69
2021/11/26 09:40:50;;;;;;;65.17;30.10;;;;;;;4.12;88.52;99312.09;5055249;28;20024;-69
2021/11/26 09:43:15;;;;;;;61.77;29.83;;;;;;;4.25;88.11;99301.41;5054322;28;20013;-68
2021/11/26 09:45:41;;;;;;;66.90;31.07;;;;;;;4.55;86.03;99303.16;5057479;28;20354;-68
2021/11/26 09:48:07;;;;;;;55.27;27.93;;;;;;;4.77;84.37;99307.34;5056557;28;20025;-68
2021/11/26 09:50:33;;;;;;;59.17;28.83;;;;;;;4.65;85.01;99319.75;5055848;28;20100;-68
2021/11/26 09:53:20;;;;;;;62.75;28.08;;;;;;;5.07;83.93;99335.25;5054998;28;20041;-70
2021/11/26 09:55:57;;;;;;;70.43;30.30;;;;;;;5.29;82.25;99315.81;5052692;28;20210;-69
2021/11/26 09:58:25;;;;;;;70.53;31.90;;;;;;;5.62;80.01;99304.03;5053028;28;20025;-69
2021/11/26 10:00:53;;;;;;;56.13;27.50;;;;;;;5.41;80.42;99304.19;5056282;28;20048;-68
2021/11/26 10:03:18;;;;;;;55.80;27.02;;;;;;;5.43;80.31;99297.00;5055325;28;20028;-69
2021/11/26 10:05:47;;;;;;;55.88;28.77;;;;;;;5.55;80.34;99272.25;5053600;28;20075;-69
2021/11/26 10:08:23;;;;;;;65.13;30.10;;;;;;;5.33;81.25;99257.66;5056318;28;20033;-69
2021/11/26 10:10:49;;;;;;;58.90;28.70;;;;;;;4.87;82.96;99239.16;5056210;28;20029;-69
2021/11/26 10:13:17;;;;;;;67.37;28.37;;;;;;;4.65;84.45;99248.94;5055588;28;20234;-68
2021/11/26 10:15:53;;;;;;;59.80;29.70;;;;;;;4.69;84.71;99276.53;5055671;28;20318;-68
2021/11/26 10:18:26;;;;;;;61.13;27.77;;;;;;;4.73;85.77;99295.47;5055357;28;20093;-68
2021/11/26 10:21:05;;;;;;;60.90;29.43;;;;;;;5.01;84.85;99278.91;5054557;28;20326;-69
2021/11/26 10:23:39;;;;;;;61.33;29.17;;;;;;;5.24;82.71;99262.91;5054782;28;20041;-69
2021/11/26 10:26:14;;;;;;;67.13;31.02;;;;;;;5.10;82.95;99222.16;5053997;28;20049;-68
2021/11/26 10:28:41;;;;;;;70.22;30.63;;;;;;;5.02;82.74;99201.84;5084703;28;20029;-68
2021/11/26 10:31:37;;;;;;;65.17;31.70;;;;;;;5.05;83.81;99185.81;5054181;28;20192;-76
2021/11/26 10:34:06;;;;;;;59.70;29.50;;;;;;;5.06;83.92;99191.91;5053485;28;20040;-77
2021/11/26 10:36:43;;;;;;;68.20;31.27;;;;;;;4.79;84.99;99197.88;5053271;28;20029;-76
2021/11/26 10:39:17;;;;;;;59.20;29.73;;;;;;;4.74;85.50;99205.31;5055256;28;20033;-75
2021/11/26 10:41:49;;;;;;;65.43;31.43;;;;;;;4.80;84.67;99199.53;5056770;28;20035;-75
2021/11/26 10:44:16;;;;;;;64.63;30.70;;;;;;;4.91;84.46;99173.16;5061543;28;20099;-77
2021/11/26 10:59:48;;;;;;;62.08;29.35;;;;;;;5.92;80.14;99193.47;5061082;28;20028;-77
2021/11/26 11:02:39;;;;;;;61.00;29.63;;;;;;;6.11;78.50;99200.44;5061568;28;20052;-77
2021/11/26 11:05:20;;;;;;;66.40;31.63;;;;;;;6.17;78.78;99175.38;5060727;28;20032;-76
2021/11/26 11:07:46;;;;;;;61.72;30.40;;;;;;;5.83;81.37;99148.84;5061107;28;20212;-75
2021/11/26 11:10:40;;;;;;;64.68;30.50;;;;;;;5.10;84.57;99152.13;5061282;28;20036;-74
2021/11/26 11:13:10;;;;;;;68.75;29.50;;;;;;;4.86;86.28;99146.50;5052070;28;20044;-76
2021/11/26 11:15:36;;;;;;;69.97;30.33;;;;;;;4.65;88.32;99138.78;5061093;28;20043;-76
2021/11/26 11:18:02;;;;;;;72.90;33.57;;;;;;;4.53;88.74;99137.28;5059893;28;20096;-75
2021/11/26 11:20:28;;;;;;;70.70;32.77;;;;;;;4.39;90.36;99116.72;5060850;28;20032;-76
2021/11/26 11:22:54;;;;;;;68.50;34.17;;;;;;;4.36;91.25;99119.63;5060986;28;20273;-76
2021/11/26 11:25:29;;;;;;;71.90;32.47;;;;;;;4.36;91.55;99109.97;5061070;28;20032;-76
2021/11/26 11:27:57;;;;;;;72.37;30.63;;;;;;;4.65;91.41;99125.69;5060933;28;20057;-75
2021/11/26 11:30:24;;;;;;;73.77;34.07;;;;;;;4.71;90.45;99112.00;5061124;28;20091;-75
2021/11/26 11:32:50;;;;;;;71.57;33.47;;;;;;;4.56;91.21;99104.72;5059539;28;20233;-75
2021/11/26 11:35:20;;;;;;;63.60;31.87;;;;;;;4.50;92.27;99093.00;5060722;28;20044;-76
2021/11/26 11:37:47;;;;;;;67.23;31.47;;;;;;;4.37;92.51;99079.34;5059392;28;20036;-76